createdAt,value
2022-09-11T00:02:46.219Z,1.00
2022-09-11T00:07:46.239Z,0.90
2022-09-11T00:12:46.221Z,0.90
2022-09-11T00:17:46.253Z,1.00
2022-09-11T00:22:46.199Z,1.00
2022-09-11T00:27:46.350Z,0.90
2022-09-11T00:32:46.205Z,0.90
2022-09-11T00:37:46.244Z,0.90
2022-09-11T00:42:46.240Z,0.90
2022-09-11T00:47:46.293Z,0.80
2022-09-11T00:52:50.018Z,0.80
2022-09-11T00:57:46.299Z,0.80
2022-09-11T01:02:46.256Z,0.80
2022-09-11T01:07:46.272Z,0.90
2022-09-11T01:12:46.254Z,0.90
2022-09-11T01:17:46.353Z,0.80
2022-09-11T01:22:46.258Z,0.80
2022-09-11T01:27:46.296Z,0.80
2022-09-11T01:32:46.268Z,0.80
2022-09-11T01:37:46.316Z,0.80
2022-09-11T01:42:46.256Z,0.80
2022-09-11T01:47:46.294Z,0.80
2022-09-11T01:52:46.340Z,0.80
2022-09-11T01:57:46.259Z,0.70
2022-09-11T02:02:46.294Z,0.70
2022-09-11T02:07:46.254Z,0.70
2022-09-11T02:12:46.326Z,0.70
2022-09-11T02:17:46.290Z,0.70
2022-09-11T02:22:46.338Z,0.70
2022-09-11T02:27:46.270Z,0.90
2022-09-11T02:32:46.334Z,0.90
2022-09-11T02:37:46.470Z,0.70
2022-09-11T02:42:46.335Z,0.70
2022-09-11T02:52:46.318Z,0.70
2022-09-11T02:57:46.344Z,0.70
2022-09-11T03:02:46.326Z,0.70
2022-09-11T03:07:46.353Z,0.80
2022-09-11T03:12:46.316Z,0.80
2022-09-11T03:17:46.353Z,0.70
2022-09-11T03:22:46.318Z,0.70
2022-09-11T03:27:46.350Z,0.70
2022-09-11T03:32:46.299Z,0.70
2022-09-11T03:37:46.324Z,0.60
2022-09-11T03:42:46.318Z,0.60
2022-09-11T03:47:46.343Z,0.50
2022-09-11T03:52:46.372Z,0.50
2022-09-11T03:57:46.336Z,0.60
2022-09-11T04:02:46.340Z,0.60
2022-09-11T04:07:46.309Z,0.60
2022-09-11T04:12:46.364Z,0.60
2022-09-11T04:17:46.341Z,0.70
2022-09-11T04:22:46.346Z,0.70
2022-09-11T04:27:46.380Z,0.70
2022-09-11T04:32:46.376Z,0.70
2022-09-11T04:37:46.350Z,0.60
2022-09-11T04:42:46.321Z,0.60
2022-09-11T04:47:46.363Z,0.60
2022-09-11T04:52:46.321Z,0.60
2022-09-11T05:02:46.351Z,0.60
2022-09-11T05:07:46.434Z,0.60
2022-09-11T05:12:46.332Z,0.60
2022-09-11T05:22:46.367Z,0.70
2022-09-11T05:27:46.368Z,0.80
2022-09-11T05:32:46.387Z,0.80
2022-09-11T05:37:46.431Z,0.70
2022-09-11T05:42:46.356Z,0.70
2022-09-11T05:47:46.393Z,0.70
2022-09-11T05:52:46.483Z,0.70
2022-09-11T05:57:46.425Z,0.70
2022-09-11T06:02:46.377Z,0.70
2022-09-11T06:07:46.408Z,1.00
2022-09-11T06:12:46.395Z,1.00
2022-09-11T06:17:46.408Z,1.00
2022-09-11T06:22:46.370Z,1.00
2022-09-11T06:27:46.388Z,0.90
2022-09-11T06:37:46.406Z,1.10
2022-09-11T06:42:46.377Z,1.10
2022-09-11T06:52:46.406Z,0.90
2022-09-11T06:57:46.408Z,0.80
2022-09-11T07:02:46.448Z,0.80
2022-09-11T07:07:46.424Z,1.00
2022-09-11T07:12:46.420Z,1.00
2022-09-11T07:17:46.438Z,1.00
2022-09-11T07:22:46.432Z,1.00
2022-09-11T07:27:46.437Z,1.00
2022-09-11T07:32:46.398Z,1.00
2022-09-11T07:37:50.611Z,1.00
2022-09-11T07:42:46.405Z,1.00
2022-09-11T07:47:46.447Z,1.00
2022-09-11T07:52:46.447Z,1.00
2022-09-11T07:57:46.444Z,1.00
2022-09-11T08:02:46.424Z,1.00
2022-09-11T08:07:46.460Z,1.00
2022-09-11T08:12:46.421Z,1.00
2022-09-11T08:17:46.434Z,1.00
2022-09-11T08:22:46.461Z,1.00
2022-09-11T08:27:46.433Z,1.00
2022-09-11T08:32:46.478Z,0.90
2022-09-11T08:37:46.456Z,0.90
2022-09-11T08:42:46.494Z,0.80
2022-09-11T08:52:46.480Z,1.20
2022-09-11T08:57:46.451Z,1.20
2022-09-11T09:02:46.507Z,0.90
2022-09-11T09:07:46.490Z,0.90
2022-09-11T09:12:46.723Z,1.20
2022-09-11T09:17:46.486Z,1.20
2022-09-11T09:22:46.475Z,148.70
2022-09-11T09:27:46.578Z,148.70
2022-09-11T09:32:46.468Z,1.30
2022-09-11T09:37:46.490Z,1.30
2022-09-11T09:42:46.499Z,1.10
2022-09-11T09:47:46.502Z,1.10
2022-09-11T09:52:46.492Z,1.50
2022-09-11T09:57:46.561Z,1.50
2022-09-11T10:02:46.489Z,64.30
2022-09-11T10:07:46.511Z,64.30
2022-09-11T10:12:46.490Z,52.70
2022-09-11T10:17:46.528Z,52.70
2022-09-11T10:22:46.527Z,186.30
2022-09-11T10:27:46.595Z,186.30
2022-09-11T10:32:46.528Z,0.80
2022-09-11T10:37:46.518Z,0.80
2022-09-11T10:42:46.544Z,1.00
2022-09-11T10:47:46.552Z,1.00
2022-09-11T10:52:46.540Z,4.60
2022-09-11T10:57:46.561Z,4.60
2022-09-11T11:02:46.587Z,0.90
2022-09-11T11:07:46.503Z,0.90
2022-09-11T11:12:46.603Z,1.00
2022-09-11T11:17:46.513Z,1.00
2022-09-11T11:22:46.548Z,0.70
2022-09-11T11:27:46.586Z,0.70
2022-09-11T11:32:46.550Z,1.00
2022-09-11T11:37:46.554Z,1.00
2022-09-11T11:42:46.568Z,1.10
2022-09-11T11:47:46.570Z,1.10
2022-09-11T11:52:46.545Z,1.00
2022-09-11T11:57:46.593Z,1.00
2022-09-11T12:02:46.581Z,0.80
2022-09-11T12:07:46.559Z,0.80
2022-09-11T12:17:46.628Z,0.90
2022-09-11T12:22:46.579Z,0.90
2022-09-11T12:27:46.589Z,0.90
2022-09-11T12:32:46.599Z,0.90
2022-09-11T12:37:48.325Z,0.90
2022-09-11T12:42:46.615Z,1.00
2022-09-11T12:47:46.568Z,1.00
2022-09-11T12:52:46.606Z,1.10
2022-09-11T12:57:46.666Z,1.10
2022-09-11T13:02:46.608Z,0.90
2022-09-11T13:07:46.579Z,0.90
2022-09-11T13:12:46.638Z,0.90
2022-09-11T13:17:46.626Z,0.90
2022-09-11T13:22:48.794Z,0.80
2022-09-11T13:27:46.634Z,0.80
2022-09-11T13:32:46.592Z,1.00
2022-09-11T13:37:46.640Z,1.00
2022-09-11T13:42:46.626Z,0.80
2022-09-11T13:47:46.825Z,0.80
2022-09-11T13:52:46.607Z,0.70
2022-09-11T13:57:46.640Z,0.70
2022-09-11T14:02:46.731Z,0.60
2022-09-11T14:07:46.632Z,0.60
2022-09-11T14:12:46.645Z,0.70
2022-09-11T14:17:46.632Z,0.70
2022-09-11T14:22:46.670Z,0.80
2022-09-11T14:27:46.647Z,0.80
2022-09-11T14:32:46.734Z,8.90
2022-09-11T14:37:46.635Z,8.90
2022-09-11T14:42:46.673Z,0.50
2022-09-11T14:47:46.629Z,0.50
2022-09-11T14:52:46.678Z,0.70
2022-09-11T14:57:46.770Z,0.70
2022-09-11T15:02:46.645Z,0.90
2022-09-11T15:07:46.687Z,0.90
2022-09-11T15:12:46.695Z,1.10
2022-09-11T15:17:46.685Z,1.10
2022-09-11T15:22:46.703Z,0.90
2022-09-11T15:27:46.677Z,0.90
2022-09-11T15:32:46.647Z,0.90
2022-09-11T15:37:46.711Z,0.90
2022-09-11T15:42:46.681Z,0.90
2022-09-11T15:47:46.664Z,0.90
2022-09-11T15:52:46.707Z,1.00
2022-09-11T15:57:46.688Z,1.00
2022-09-11T16:02:46.706Z,1.20
2022-09-11T16:07:46.701Z,1.20
2022-09-11T16:12:46.722Z,1.00
2022-09-11T16:17:46.706Z,1.00
2022-09-11T16:22:46.682Z,1.20
2022-09-11T16:27:46.715Z,1.20
2022-09-11T16:32:46.704Z,1.10
2022-09-11T16:37:46.716Z,1.10
2022-09-11T16:42:46.688Z,1.00
2022-09-11T16:47:46.706Z,1.00
2022-09-11T16:52:46.745Z,1.50
2022-09-11T16:57:46.728Z,1.50
2022-09-11T17:02:46.720Z,1.10
2022-09-11T17:07:46.827Z,1.10
2022-09-11T17:12:46.718Z,1.10
2022-09-11T17:17:46.741Z,1.10
2022-09-11T17:22:46.744Z,1.10
2022-09-11T17:27:46.822Z,1.10
2022-09-11T17:32:46.814Z,1.00
2022-09-11T17:37:46.730Z,1.00
2022-09-11T17:42:46.952Z,1.20
2022-09-11T17:47:46.871Z,1.20
2022-09-11T17:52:46.773Z,1.10
2022-09-11T17:57:46.966Z,1.10
2022-09-11T18:02:46.780Z,1.30
2022-09-11T18:07:46.919Z,1.30
2022-09-11T18:12:46.859Z,1.10
2022-09-11T18:17:46.905Z,1.10
2022-09-11T18:22:47.138Z,1.30
2022-09-11T18:27:46.968Z,1.30
2022-09-11T18:32:47.004Z,1.10
2022-09-11T18:37:46.948Z,1.10
2022-09-11T18:42:46.931Z,267.70
2022-09-11T18:47:46.910Z,267.70
2022-09-11T18:52:46.972Z,267.70
2022-09-11T18:57:49.025Z,267.70
2022-09-11T19:02:46.954Z,267.70
2022-09-11T19:07:46.954Z,267.70
2022-09-11T19:12:46.877Z,267.70
2022-09-11T19:17:47.964Z,267.70
2022-09-11T19:22:46.961Z,267.70
2022-09-11T19:27:46.811Z,267.70
2022-09-11T19:32:46.880Z,267.70
2022-09-11T19:37:46.892Z,267.70
2022-09-11T19:42:46.875Z,267.70
2022-09-11T19:47:46.888Z,267.70
2022-09-11T19:52:46.860Z,267.70
2022-09-11T19:57:47.008Z,267.70
2022-09-11T20:02:46.776Z,267.70
2022-09-11T20:07:46.818Z,267.70
2022-09-11T20:12:46.857Z,267.70
2022-09-11T20:17:46.844Z,267.70
2022-09-11T20:22:46.855Z,267.70
2022-09-11T20:27:46.835Z,267.70
2022-09-11T20:37:46.832Z,267.70
2022-09-11T20:42:46.841Z,267.70
2022-09-11T20:47:46.806Z,267.70
2022-09-11T20:57:46.836Z,267.70
2022-09-11T21:02:46.868Z,267.70
2022-09-11T21:07:46.824Z,267.70
2022-09-11T21:12:46.844Z,267.70
2022-09-11T21:17:46.828Z,267.70
2022-09-11T21:22:46.851Z,267.70
2022-09-11T21:27:46.857Z,267.70
2022-09-11T21:32:46.872Z,267.70
2022-09-11T21:37:46.864Z,267.70
2022-09-11T21:42:46.861Z,267.70
2022-09-11T21:47:46.872Z,267.70
2022-09-11T21:52:46.874Z,267.70
2022-09-11T21:57:46.886Z,267.70
2022-09-11T22:02:46.890Z,267.70
2022-09-11T22:07:46.935Z,267.70
2022-09-11T22:12:46.877Z,267.70
2022-09-11T22:17:46.905Z,267.70
2022-09-11T22:22:46.892Z,267.70
2022-09-11T22:27:46.887Z,267.70
2022-09-11T22:37:46.882Z,267.70
2022-09-11T22:42:46.882Z,267.70
2022-09-11T22:47:46.914Z,267.70
2022-09-11T22:52:46.902Z,267.70
2022-09-11T22:57:46.901Z,267.70
2022-09-11T23:07:46.913Z,267.70
2022-09-11T23:12:46.899Z,267.70
2022-09-11T23:17:46.896Z,267.70
2022-09-11T23:22:46.925Z,267.70
2022-09-11T23:27:46.906Z,267.70
2022-09-11T23:32:46.902Z,267.70
2022-09-11T23:37:46.928Z,267.70
2022-09-11T23:42:46.944Z,267.70
2022-09-11T23:47:46.939Z,267.70
2022-09-11T23:52:46.936Z,267.70
